Reynolds, North Dakota
Current Conditions -  °F | °C
As of 4:53 AM on Wednesday 26 Nov 2014 (Local Time) from KGFK Reporting Station
Broken Clouds Broken Clouds  
Wind Chill: -29°   Ceiling: 10000
Heat Index: -18°   Visibility: 10mi
Dew Point: -21°   Wind: 16mph
Humidity: 76%   Direction: 350°N
Pressure: 30.3"   Gusts: NA
Location:  47.67°N, 97.11°W
Report Text: KGFK 261053Z AUTO 35014KT 10SM BKN100 M18/M21 A3030 RMK AO2 SLP283 T11781211 TSNO
Loading
Personal Weather Stations






























Interactive Weather Map New forecast layout! Learn more

10-Day Weather Forecast

Advertisements
Track Severe Weather on mobile